createdAt,value
2017-02-24T00:00:47.239Z,8.8
2017-02-24T00:01:56.664Z,8.74
2017-02-24T00:03:05.660Z,8.83
2017-02-24T00:04:15.619Z,8.84
2017-02-24T00:05:24.595Z,8.83
2017-02-24T00:06:34.583Z,8.74
2017-02-24T00:07:43.624Z,8.84
2017-02-24T00:08:53.192Z,8.77
2017-02-24T00:10:02.177Z,8.86
2017-02-24T00:11:12.915Z,8.83
2017-02-24T00:12:21.926Z,8.76
2017-02-24T00:13:30.970Z,8.8
2017-02-24T00:14:41.647Z,8.71
2017-02-24T00:15:51.903Z,8.8
2017-02-24T00:17:00.899Z,8.83
2017-02-24T00:18:10.537Z,8.8
2017-02-24T00:19:19.515Z,8.81
2017-02-24T00:20:29.239Z,8.86
2017-02-24T00:21:38.631Z,8.77
2017-02-24T00:22:48.230Z,8.87
2017-02-24T00:23:57.224Z,8.84
2017-02-24T00:25:06.859Z,8.86
2017-02-24T00:26:16.005Z,8.87
2017-02-24T00:27:25.672Z,8.91
2017-02-24T00:28:34.651Z,8.87
2017-02-24T00:29:44.871Z,8.8
2017-02-24T00:30:53.873Z,8.87
2017-02-24T00:32:03.544Z,8.87
2017-02-24T00:33:12.519Z,8.92
2017-02-24T00:34:22.354Z,8.84
2017-02-24T00:35:31.449Z,8.91
2017-02-24T00:36:41.090Z,8.94
2017-02-24T00:37:50.576Z,8.89
2017-02-24T00:38:59.738Z,8.87
2017-02-24T00:40:08.733Z,8.92
2017-02-24T00:41:18.626Z,8.94
2017-02-24T00:42:27.612Z,8.91
2017-02-24T00:43:37.620Z,8.92
2017-02-24T00:44:46.599Z,8.94
2017-02-24T00:45:56.363Z,8.91
2017-02-24T00:47:05.348Z,8.86
2017-02-24T00:48:14.956Z,8.84
2017-02-24T00:49:23.947Z,8.92
2017-02-24T00:50:33.819Z,8.92
2017-02-24T00:51:42.800Z,8.84
2017-02-24T00:52:52.453Z,8.81
2017-02-24T00:54:01.441Z,8.74
2017-02-24T00:55:11.348Z,8.53
2017-02-24T00:56:20.346Z,8.53
2017-02-24T00:57:29.994Z,8.48
2017-02-24T00:58:39.247Z,8.38
2017-02-24T00:59:48.855Z,8.38
2017-02-24T01:00:57.837Z,8.34
2017-02-24T01:02:07.732Z,8.3
2017-02-24T01:03:16.707Z,8.25
2017-02-24T01:04:26.361Z,8.2
2017-02-24T01:05:35.458Z,8.25
2017-02-24T01:06:45.233Z,8.12
2017-02-24T01:07:54.211Z,8.18
2017-02-24T01:09:04.020Z,8.05
2017-02-24T01:10:13.012Z,8.05
2017-02-24T01:11:22.861Z,7.92
2017-02-24T01:12:31.862Z,7.95
2017-02-24T01:13:41.898Z,7.89
2017-02-24T01:14:50.882Z,8.01
2017-02-24T01:16:00.756Z,8.1
2017-02-24T01:17:09.728Z,8.07
2017-02-24T01:18:19.604Z,8.18
2017-02-24T01:19:28.616Z,8.29
2017-02-24T01:20:38.378Z,8.22
2017-02-24T01:21:47.364Z,8.16
2017-02-24T01:22:58.471Z,8.26
2017-02-24T01:24:07.540Z,8.23
2017-02-24T01:25:17.459Z,8.2
2017-02-24T01:26:26.452Z,8.08
2017-02-24T01:27:36.372Z,8.05
2017-02-24T01:28:45.347Z,7.93
2017-02-24T01:29:55.369Z,7.92
2017-02-24T01:31:05.076Z,7.97
2017-02-24T01:32:14.437Z,7.95
2017-02-24T01:33:24.175Z,7.95
2017-02-24T01:34:33.157Z,7.93
2017-02-24T01:35:42.824Z,8.04
2017-02-24T01:36:52.485Z,8.01
2017-02-24T01:38:03.170Z,8.05
2017-02-24T01:39:12.149Z,8.07
2017-02-24T01:40:22.619Z,8.05
2017-02-24T01:41:31.612Z,8.04
2017-02-24T01:42:42.539Z,8.1
2017-02-24T01:43:51.922Z,8.08
2017-02-24T01:45:02.284Z,8.15
2017-02-24T01:46:11.455Z,8.08
2017-02-24T01:47:22.654Z,8.04
2017-02-24T01:48:32.545Z,7.97
2017-02-24T01:49:41.662Z,7.93
2017-02-24T01:50:51.367Z,8.02
2017-02-24T01:52:00.353Z,8.02
2017-02-24T01:53:09.966Z,8.05
2017-02-24T01:54:18.956Z,8.04
2017-02-24T01:55:28.905Z,8.12
2017-02-24T01:56:38.289Z,8.05
2017-02-24T01:57:47.688Z,8
2017-02-24T01:58:59.485Z,7.92
2017-02-24T02:00:10.109Z,7.98
2017-02-24T02:01:19.251Z,7.92
2017-02-24T02:02:29.268Z,7.82
2017-02-24T02:03:38.872Z,7.68
2017-02-24T02:04:48.547Z,7.6
2017-02-24T02:05:58.125Z,7.6
2017-02-24T02:07:07.577Z,7.42
2017-02-24T02:08:17.867Z,7.46
2017-02-24T02:09:27.044Z,7.37
2017-02-24T02:10:36.720Z,7.4
2017-02-24T02:11:45.697Z,7.35
2017-02-24T02:12:54.693Z,7.4
2017-02-24T02:14:03.711Z,7.34
2017-02-24T02:15:12.726Z,7.34
2017-02-24T02:16:21.952Z,7.39
2017-02-24T02:17:30.932Z,7.43
2017-02-24T02:18:39.912Z,7.32
2017-02-24T02:19:48.890Z,7.25
2017-02-24T02:20:57.867Z,7.34
2017-02-24T02:22:07.142Z,7.3
2017-02-24T02:23:16.211Z,7.21
2017-02-24T02:24:25.279Z,7.23
2017-02-24T02:25:34.264Z,7.3
2017-02-24T02:26:43.259Z,7.28
2017-02-24T02:27:52.533Z,7.25
2017-02-24T02:29:01.526Z,7.17
2017-02-24T02:30:10.515Z,7.34
2017-02-24T02:31:19.518Z,7.42
2017-02-24T02:32:28.511Z,7.32
2017-02-24T02:33:37.790Z,7.42
2017-02-24T02:34:46.790Z,7.37
2017-02-24T02:35:55.762Z,7.42
2017-02-24T02:37:04.748Z,7.45
2017-02-24T02:38:13.722Z,7.46
2017-02-24T02:39:23.009Z,7.5
2017-02-24T02:40:32.001Z,7.57
2017-02-24T02:41:41.001Z,7.55
2017-02-24T02:42:49.980Z,7.57
2017-02-24T02:43:58.970Z,7.57
2017-02-24T02:45:08.264Z,7.48
2017-02-24T02:46:17.241Z,7.52
2017-02-24T02:47:26.220Z,7.46
2017-02-24T02:48:35.239Z,7.43
2017-02-24T02:49:44.221Z,7.52
2017-02-24T02:50:53.521Z,7.5
2017-02-24T02:52:02.516Z,7.46
2017-02-24T02:53:11.507Z,7.5
2017-02-24T02:54:20.481Z,7.61
2017-02-24T02:55:29.464Z,7.75
2017-02-24T02:56:38.843Z,7.57
2017-02-24T02:57:47.820Z,7.57
2017-02-24T02:58:56.900Z,7.5
2017-02-24T03:00:05.873Z,7.57
2017-02-24T03:01:14.848Z,7.55
2017-02-24T03:02:24.139Z,7.53
2017-02-24T03:03:33.112Z,7.55
2017-02-24T03:04:42.517Z,7.5
2017-02-24T03:05:51.911Z,7.61
2017-02-24T03:07:00.904Z,7.55
2017-02-24T03:08:10.232Z,7.53
2017-02-24T03:09:19.219Z,7.61
2017-02-24T03:10:28.204Z,7.63
2017-02-24T03:11:37.287Z,7.64
2017-02-24T03:12:46.294Z,7.57
2017-02-24T03:13:55.575Z,7.58
2017-02-24T03:15:04.563Z,7.5
2017-02-24T03:16:13.557Z,7.67
2017-02-24T03:17:22.635Z,7.67
2017-02-24T03:18:31.710Z,7.67
2017-02-24T03:19:41.012Z,7.71
2017-02-24T03:20:49.987Z,7.6
2017-02-24T03:21:59.073Z,7.74
2017-02-24T03:23:08.063Z,7.75
2017-02-24T03:24:17.060Z,7.72
2017-02-24T03:25:26.448Z,7.82
2017-02-24T03:26:35.427Z,7.77
2017-02-24T03:27:44.815Z,7.85
2017-02-24T03:28:54.215Z,7.87
2017-02-24T03:30:03.294Z,7.87
2017-02-24T03:31:12.663Z,7.86
2017-02-24T03:32:21.832Z,7.86
2017-02-24T03:33:30.830Z,7.83
2017-02-24T03:34:39.816Z,7.8
2017-02-24T03:35:48.828Z,7.68
2017-02-24T03:36:58.110Z,7.68
2017-02-24T03:38:07.123Z,7.72
2017-02-24T03:39:16.110Z,7.83
2017-02-24T03:40:25.094Z,7.74
2017-02-24T03:41:34.087Z,7.74
2017-02-24T03:42:43.721Z,7.69
2017-02-24T03:43:52.731Z,7.74
2017-02-24T03:45:01.728Z,7.72
2017-02-24T03:46:10.725Z,7.6
2017-02-24T03:47:19.818Z,7.57
2017-02-24T03:48:29.205Z,7.5
2017-02-24T03:49:38.189Z,7.49
2017-02-24T03:50:47.259Z,7.49
2017-02-24T03:51:56.254Z,7.55
2017-02-24T03:53:05.285Z,7.53
2017-02-24T03:54:14.515Z,7.57
2017-02-24T03:55:23.501Z,7.63
2017-02-24T03:56:32.474Z,7.49
2017-02-24T03:57:41.461Z,7.57
2017-02-24T03:58:50.446Z,7.46
2017-02-24T03:59:59.730Z,7.5
2017-02-24T04:01:08.708Z,7.49
2017-02-24T04:02:17.712Z,7.58
2017-02-24T04:03:26.700Z,7.52
2017-02-24T04:04:35.684Z,7.55
2017-02-24T04:05:44.935Z,7.6
2017-02-24T04:06:53.915Z,7.64
2017-02-24T04:08:02.915Z,7.6
2017-02-24T04:09:11.896Z,7.58
2017-02-24T04:10:20.963Z,7.58
2017-02-24T04:11:30.244Z,7.55
2017-02-24T04:12:39.235Z,7.58
2017-02-24T04:13:48.334Z,7.5
2017-02-24T04:14:57.409Z,7.58
2017-02-24T04:16:06.585Z,7.55
2017-02-24T04:17:16.273Z,7.58
2017-02-24T04:18:25.257Z,7.57
2017-02-24T04:19:34.330Z,7.5
2017-02-24T04:20:43.308Z,7.46
2017-02-24T04:21:52.294Z,7.5
2017-02-24T04:23:01.524Z,7.55
2017-02-24T04:24:10.508Z,7.58
2017-02-24T04:25:19.491Z,7.58
2017-02-24T04:26:28.894Z,7.46
2017-02-24T04:27:37.880Z,7.5
2017-02-24T04:28:47.275Z,7.52
2017-02-24T04:29:56.251Z,7.57
2017-02-24T04:31:05.246Z,7.52
2017-02-24T04:32:14.230Z,7.6
2017-02-24T04:33:23.207Z,7.61
2017-02-24T04:34:32.434Z,7.64
2017-02-24T04:35:41.424Z,7.64
2017-02-24T04:36:50.409Z,7.55
2017-02-24T04:37:59.409Z,7.57
2017-02-24T04:39:08.406Z,7.46
2017-02-24T04:40:17.661Z,7.39
2017-02-24T04:41:26.644Z,7.39
2017-02-24T04:42:35.639Z,7.31
2017-02-24T04:43:45.049Z,7.21
2017-02-24T04:44:54.064Z,7.27
2017-02-24T04:46:03.351Z,7.15
2017-02-24T04:47:12.342Z,7.12
2017-02-24T04:48:21.444Z,7.16
2017-02-24T04:49:30.528Z,7.07
2017-02-24T04:50:39.512Z,6.91
2017-02-24T04:51:48.892Z,6.8
2017-02-24T04:52:57.874Z,6.79
2017-02-24T04:54:07.287Z,6.64
2017-02-24T04:55:16.670Z,6.59
2017-02-24T04:56:25.656Z,6.54
2017-02-24T04:57:34.900Z,6.44
2017-02-24T04:58:44.073Z,6.3
2017-02-24T05:00:00.050Z,6.28
2017-02-24T05:01:09.070Z,6.3
2017-02-24T05:02:18.072Z,6.28
2017-02-24T05:03:27.384Z,6.34
2017-02-24T05:04:36.453Z,6.22
2017-02-24T05:05:45.425Z,6.22
2017-02-24T05:06:54.428Z,6.3
2017-02-24T05:08:03.415Z,6.33
2017-02-24T05:09:12.699Z,6.28
2017-02-24T05:10:21.690Z,6.11
2017-02-24T05:11:30.674Z,6.03
2017-02-24T05:12:39.665Z,6.04
2017-02-24T05:13:48.672Z,6
2017-02-24T05:14:57.946Z,5.99
2017-02-24T05:16:06.931Z,5.96
2017-02-24T05:17:16.007Z,5.97
2017-02-24T05:18:25.402Z,5.94
2017-02-24T05:19:34.388Z,5.96
2017-02-24T05:20:43.623Z,5.94
2017-02-24T05:21:52.700Z,5.89
2017-02-24T05:23:01.707Z,5.86
2017-02-24T05:24:11.093Z,5.79
2017-02-24T05:25:20.085Z,5.67
2017-02-24T05:26:29.435Z,5.58
2017-02-24T05:27:38.418Z,5.54
2017-02-24T05:28:47.480Z,5.53
2017-02-24T05:29:56.466Z,5.53
2017-02-24T05:31:05.439Z,5.49
2017-02-24T05:32:14.672Z,5.51
2017-02-24T05:33:23.672Z,5.56
2017-02-24T05:34:32.678Z,5.49
2017-02-24T05:35:41.649Z,5.53
2017-02-24T05:36:50.652Z,5.48
2017-02-24T05:38:00.050Z,5.42
2017-02-24T05:39:09.037Z,5.38
2017-02-24T05:40:18.440Z,5.39
2017-02-24T05:41:27.415Z,5.22
2017-02-24T05:42:36.413Z,5.27
2017-02-24T05:43:45.638Z,5.24
2017-02-24T05:44:54.710Z,5.28
2017-02-24T05:46:03.693Z,5.28
2017-02-24T05:47:12.692Z,5.25
2017-02-24T05:48:21.677Z,5.22
2017-02-24T05:49:30.978Z,5.22
2017-02-24T05:50:39.968Z,5.18
2017-02-24T05:51:48.962Z,5.13
2017-02-24T05:52:57.970Z,5.28
2017-02-24T05:54:07.008Z,5.25
2017-02-24T05:55:16.240Z,5.25
2017-02-24T05:56:25.230Z,5.15
2017-02-24T05:57:34.211Z,5.3
2017-02-24T05:58:43.196Z,5.13
2017-02-24T05:59:52.195Z,5.2
2017-02-24T06:01:01.426Z,5.22
2017-02-24T06:02:10.438Z,5.22
2017-02-24T06:03:19.420Z,5.2
2017-02-24T06:04:28.411Z,5.21
2017-02-24T06:05:37.488Z,5.18
2017-02-24T06:06:46.723Z,5.28
2017-02-24T06:07:55.692Z,5.17
2017-02-24T06:09:04.673Z,5.22
2017-02-24T06:10:13.693Z,5.13
2017-02-24T06:11:22.755Z,5.06
2017-02-24T06:12:31.976Z,5.02
2017-02-24T06:13:40.957Z,5.04
2017-02-24T06:14:49.925Z,4.99
2017-02-24T06:15:59.301Z,4.92
2017-02-24T06:17:08.308Z,5
2017-02-24T06:18:17.559Z,5.06
2017-02-24T06:19:26.642Z,4.97
2017-02-24T06:20:35.625Z,5
2017-02-24T06:21:45.017Z,5.06
2017-02-24T06:22:53.989Z,5
2017-02-24T06:24:03.214Z,4.86
2017-02-24T06:25:12.200Z,4.91
2017-02-24T06:26:21.188Z,4.94
2017-02-24T06:27:30.161Z,4.89
2017-02-24T06:28:39.149Z,5
2017-02-24T06:29:48.448Z,4.97
2017-02-24T06:30:57.430Z,5
2017-02-24T06:32:06.415Z,5.09
2017-02-24T06:33:15.919Z,5.1
2017-02-24T06:34:24.951Z,5.07
2017-02-24T06:35:34.207Z,5.02
2017-02-24T06:36:43.195Z,5.1
2017-02-24T06:37:52.167Z,5.09
2017-02-24T06:39:01.152Z,5.09
2017-02-24T06:40:10.141Z,5.22
2017-02-24T06:41:19.473Z,5.2
2017-02-24T06:42:28.469Z,5.22
2017-02-24T06:43:37.454Z,5.3
2017-02-24T06:44:46.464Z,5.21
2017-02-24T06:45:55.461Z,5.22
2017-02-24T06:47:04.685Z,5.24
2017-02-24T06:48:13.668Z,5.22
2017-02-24T06:49:22.677Z,5.22
2017-02-24T06:50:32.072Z,5.04
2017-02-24T06:51:41.056Z,5.03
2017-02-24T06:52:50.285Z,5.07
2017-02-24T06:53:59.290Z,5.1
2017-02-24T06:55:08.284Z,5.07
2017-02-24T06:56:17.278Z,5.1
2017-02-24T06:57:26.256Z,5.13
2017-02-24T06:58:35.503Z,5.09
2017-02-24T06:59:44.502Z,5.09
2017-02-24T07:00:53.495Z,5.09
2017-02-24T07:02:02.504Z,5.09
2017-02-24T07:03:11.488Z,5.1
2017-02-24T07:04:21.183Z,5.1
2017-02-24T07:05:30.178Z,5.24
2017-02-24T07:06:39.149Z,5.21
2017-02-24T07:07:48.140Z,5.28
2017-02-24T07:08:57.119Z,5.15
2017-02-24T07:10:06.715Z,5.27
2017-02-24T07:11:15.788Z,5.21
2017-02-24T07:12:24.772Z,5.09
2017-02-24T07:13:33.764Z,5.3
2017-02-24T07:14:42.758Z,5.22
2017-02-24T07:15:52.408Z,5.17
2017-02-24T07:17:01.892Z,5.17
2017-02-24T07:18:10.877Z,5.2
2017-02-24T07:19:19.876Z,5.25
2017-02-24T07:20:28.855Z,5.21
2017-02-24T07:21:38.131Z,5.25
2017-02-24T07:22:47.123Z,5.13
2017-02-24T07:23:56.090Z,5.28
2017-02-24T07:25:05.827Z,5.22
2017-02-24T07:26:15.095Z,5.22
2017-02-24T07:27:24.939Z,5.21
2017-02-24T07:28:33.926Z,5.35
2017-02-24T07:29:42.920Z,5.3
2017-02-24T07:30:51.895Z,5.25
2017-02-24T07:32:00.877Z,5.22
2017-02-24T07:33:11.228Z,5.22
2017-02-24T07:34:20.895Z,5.22
2017-02-24T07:35:30.452Z,5.25
2017-02-24T07:36:39.420Z,5.27
2017-02-24T07:37:49.040Z,5.2
2017-02-24T07:38:58.895Z,5.25
2017-02-24T07:40:07.871Z,5.22
2017-02-24T07:41:16.857Z,5.31
2017-02-24T07:42:25.829Z,5.35
2017-02-24T07:43:34.812Z,5.36
2017-02-24T07:44:44.129Z,5.45
2017-02-24T07:45:54.369Z,5.54
2017-02-24T07:47:03.355Z,5.51
2017-02-24T07:48:13.374Z,5.54
2017-02-24T07:49:22.454Z,5.56
2017-02-24T07:50:31.733Z,5.53
2017-02-24T07:51:41.357Z,5.57
2017-02-24T07:52:50.596Z,5.54
2017-02-24T07:53:59.603Z,5.54
2017-02-24T07:55:08.675Z,5.61
2017-02-24T07:56:17.923Z,5.68
2017-02-24T07:57:26.982Z,5.81
2017-02-24T07:58:35.971Z,5.83
2017-02-24T07:59:45.521Z,5.79
2017-02-24T08:00:54.589Z,5.75
2017-02-24T08:02:04.200Z,5.82
2017-02-24T08:03:14.180Z,5.72
2017-02-24T08:04:23.205Z,5.65
2017-02-24T08:05:32.832Z,5.72
2017-02-24T08:06:41.815Z,5.75
2017-02-24T08:07:51.242Z,5.72
2017-02-24T08:09:00.424Z,5.58
2017-02-24T08:10:09.412Z,5.56
2017-02-24T08:11:18.586Z,5.39
2017-02-24T08:12:27.748Z,5.21
2017-02-24T08:13:37.000Z,5.2
2017-02-24T08:14:46.170Z,5.13
2017-02-24T08:15:55.901Z,5.12
2017-02-24T08:17:04.884Z,5.09
2017-02-24T08:18:13.862Z,5.07
2017-02-24T08:19:23.096Z,5.03
2017-02-24T08:20:32.585Z,5.15
2017-02-24T08:21:41.609Z,5.09
2017-02-24T08:22:50.682Z,5.09
2017-02-24T08:23:59.662Z,5.07
2017-02-24T08:25:08.902Z,5.06
2017-02-24T08:26:18.648Z,5.09
2017-02-24T08:27:27.627Z,5.18
2017-02-24T08:28:36.782Z,5.18
2017-02-24T08:29:45.767Z,5.28
2017-02-24T08:30:54.997Z,5.31
2017-02-24T08:32:04.181Z,5.31
2017-02-24T08:33:13.164Z,5.38
2017-02-24T08:34:22.237Z,5.33
2017-02-24T08:35:31.215Z,5.22
2017-02-24T08:36:40.536Z,5.28
2017-02-24T08:37:49.840Z,5.22
2017-02-24T08:38:58.812Z,5.24
2017-02-24T08:40:07.837Z,5.12
2017-02-24T08:41:16.819Z,5.07
2017-02-24T08:42:26.063Z,5.04
2017-02-24T08:43:35.468Z,5.03
2017-02-24T08:44:44.529Z,5.02
2017-02-24T08:45:53.590Z,5.03
2017-02-24T08:47:02.663Z,4.97
2017-02-24T08:48:12.326Z,5.03
2017-02-24T08:49:21.312Z,5.06
2017-02-24T08:50:30.388Z,5.12
2017-02-24T08:51:39.377Z,5.21
2017-02-24T08:52:48.375Z,5.18
2017-02-24T08:53:57.646Z,5.3
2017-02-24T08:55:06.653Z,5.13
2017-02-24T08:56:16.058Z,5.21
2017-02-24T08:57:25.041Z,5.13
2017-02-24T08:58:34.029Z,5.15
2017-02-24T08:59:43.399Z,5.1
2017-02-24T09:00:52.747Z,5
2017-02-24T09:02:01.724Z,5.03
2017-02-24T09:03:10.857Z,5.03
2017-02-24T09:04:19.840Z,5.03
2017-02-24T09:05:29.075Z,5.02
2017-02-24T09:06:38.066Z,5.09
2017-02-24T09:07:47.361Z,5.07
2017-02-24T09:08:56.389Z,5.09
2017-02-24T09:10:05.378Z,5.1
2017-02-24T09:11:14.609Z,5
2017-02-24T09:12:23.583Z,5.04
2017-02-24T09:13:32.568Z,5.07
2017-02-24T09:14:41.647Z,5
2017-02-24T09:15:50.670Z,5.06
2017-02-24T09:16:59.936Z,5.15
2017-02-24T09:18:08.940Z,4.99
2017-02-24T09:19:18.104Z,5.06
2017-02-24T09:20:27.322Z,5.04
2017-02-24T09:21:36.322Z,5.17
2017-02-24T09:22:45.583Z,5.03
2017-02-24T09:23:54.626Z,5.06
2017-02-24T09:25:03.629Z,5.17
2017-02-24T09:26:12.629Z,5.18
2017-02-24T09:27:21.693Z,5.13
2017-02-24T09:28:30.928Z,5.3
2017-02-24T09:29:39.915Z,5.3
2017-02-24T09:30:48.890Z,5.42
2017-02-24T09:31:57.890Z,5.51
2017-02-24T09:33:06.880Z,5.57
2017-02-24T09:34:16.120Z,5.49
2017-02-24T09:35:25.114Z,5.38
2017-02-24T09:36:34.097Z,5.35
2017-02-24T09:37:43.389Z,5.38
2017-02-24T09:38:52.619Z,5.38
2017-02-24T09:40:01.852Z,5.39
2017-02-24T09:41:10.847Z,5.38
2017-02-24T09:42:19.873Z,5.43
2017-02-24T09:43:28.936Z,5.39
2017-02-24T09:44:37.910Z,5.39
2017-02-24T09:45:47.221Z,5.36
2017-02-24T09:46:56.238Z,5.42
2017-02-24T09:48:06.025Z,5.43
2017-02-24T09:49:16.237Z,5.48
2017-02-24T09:50:25.221Z,5.39
2017-02-24T09:51:34.720Z,5.21
2017-02-24T09:52:43.931Z,5.2
2017-02-24T09:53:52.908Z,5.31
2017-02-24T09:55:01.986Z,5.36
2017-02-24T09:56:10.975Z,5.27
2017-02-24T09:57:20.256Z,5.27
2017-02-24T09:58:29.238Z,5.25
2017-02-24T09:59:38.223Z,5.28
2017-02-24T10:00:47.202Z,5.31
2017-02-24T10:01:56.186Z,5.3
2017-02-24T10:03:05.508Z,5.4
2017-02-24T10:04:14.504Z,5.43
2017-02-24T10:05:23.496Z,5.39
2017-02-24T10:06:38.542Z,5.46
2017-02-24T10:07:49.343Z,5.48
2017-02-24T10:08:58.578Z,5.56
2017-02-24T10:10:07.599Z,5.48
2017-02-24T10:11:16.599Z,5.61
2017-02-24T10:12:25.580Z,5.72
2017-02-24T10:13:34.687Z,5.82
2017-02-24T10:14:43.915Z,5.78
2017-02-24T10:15:52.925Z,5.91
2017-02-24T10:17:02.006Z,5.83
2017-02-24T10:18:11.003Z,5.86
2017-02-24T10:19:19.982Z,5.85
2017-02-24T10:20:29.223Z,5.85
2017-02-24T10:21:38.249Z,5.78
2017-02-24T10:22:47.229Z,5.83
2017-02-24T10:23:56.211Z,5.76
2017-02-24T10:25:05.195Z,5.78
2017-02-24T10:26:14.436Z,5.75
2017-02-24T10:27:23.527Z,5.74
2017-02-24T10:28:32.505Z,5.74
2017-02-24T10:29:41.500Z,5.74
2017-02-24T10:30:50.491Z,5.82
2017-02-24T10:31:59.728Z,5.79
2017-02-24T10:33:08.713Z,5.79
2017-02-24T10:34:17.704Z,5.81
2017-02-24T10:35:26.689Z,5.9
2017-02-24T10:36:35.789Z,5.85
2017-02-24T10:37:45.013Z,5.9
2017-02-24T10:38:54.011Z,5.99
2017-02-24T10:40:03.484Z,5.99
2017-02-24T10:41:12.479Z,5.94
2017-02-24T10:42:21.462Z,5.85
2017-02-24T10:43:30.781Z,5.85
2017-02-24T10:44:39.839Z,5.85
2017-02-24T10:45:48.914Z,5.65
2017-02-24T10:46:58.312Z,5.54
2017-02-24T10:48:07.802Z,5.31
2017-02-24T10:49:17.268Z,5.25
2017-02-24T10:50:26.247Z,5.24
2017-02-24T10:51:35.226Z,5.27
2017-02-24T10:52:44.207Z,5.18
2017-02-24T10:53:53.219Z,5.18
2017-02-24T10:55:02.469Z,5.15
2017-02-24T10:56:11.453Z,5.18
2017-02-24T10:57:20.459Z,5.3
2017-02-24T10:58:29.449Z,5.35
2017-02-24T10:59:38.640Z,5.33
2017-02-24T11:00:47.868Z,5.21
2017-02-24T11:01:56.837Z,5.18
2017-02-24T11:03:06.356Z,5.22
2017-02-24T11:04:15.357Z,5.35
2017-02-24T11:05:24.348Z,5.36
2017-02-24T11:06:33.626Z,5.43
2017-02-24T11:07:43.123Z,5.43
2017-02-24T11:08:52.134Z,5.36
2017-02-24T11:10:01.122Z,5.39
2017-02-24T11:11:10.120Z,5.4
2017-02-24T11:12:19.448Z,5.51
2017-02-24T11:13:28.443Z,5.54
2017-02-24T11:14:37.446Z,5.49
2017-02-24T11:15:46.423Z,5.54
2017-02-24T11:16:55.407Z,5.42
2017-02-24T11:18:04.673Z,5.33
2017-02-24T11:19:13.670Z,5.33
2017-02-24T11:20:23.162Z,5.39
2017-02-24T11:21:32.143Z,5.48
2017-02-24T11:22:41.131Z,5.53
2017-02-24T11:23:50.408Z,5.6
2017-02-24T11:24:59.415Z,5.51
2017-02-24T11:26:08.403Z,5.46
2017-02-24T11:27:17.409Z,5.53
2017-02-24T11:28:26.400Z,5.49
2017-02-24T11:29:35.686Z,5.57
2017-02-24T11:30:45.672Z,5.54
2017-02-24T11:31:54.743Z,5.63
2017-02-24T11:33:03.716Z,5.71
2017-02-24T11:34:12.690Z,5.75
2017-02-24T11:35:21.979Z,5.72
2017-02-24T11:36:30.985Z,5.83
2017-02-24T11:37:39.975Z,5.86
2017-02-24T11:38:49.468Z,5.86
2017-02-24T11:39:58.455Z,5.93
2017-02-24T11:41:08.099Z,5.99
2017-02-24T11:42:17.089Z,6.06
2017-02-24T11:43:26.062Z,6.11
2017-02-24T11:44:35.037Z,6.14
2017-02-24T11:45:44.039Z,6.03
2017-02-24T11:46:53.323Z,6.09
2017-02-24T11:48:02.723Z,6.08
2017-02-24T11:49:11.830Z,6.04
2017-02-24T11:50:20.888Z,6.03
2017-02-24T11:51:30.013Z,5.97
2017-02-24T11:52:39.255Z,6.04
2017-02-24T11:53:48.239Z,6.06
2017-02-24T11:54:57.621Z,6.08
2017-02-24T11:56:06.602Z,6.08
2017-02-24T11:57:15.668Z,6.04
2017-02-24T11:58:24.944Z,5.91
2017-02-24T11:59:33.926Z,5.89
2017-02-24T12:00:42.906Z,5.9
2017-02-24T12:01:51.897Z,5.99
2017-02-24T12:03:00.880Z,6.08
2017-02-24T12:04:10.192Z,6.03
2017-02-24T12:05:19.159Z,6.14
2017-02-24T12:06:28.149Z,6.17
2017-02-24T12:07:37.160Z,6.03
2017-02-24T12:08:46.144Z,6.03
2017-02-24T12:09:55.370Z,6.11
2017-02-24T12:11:04.367Z,6.18
2017-02-24T12:12:13.449Z,6.14
2017-02-24T12:13:22.730Z,6.14
2017-02-24T12:14:32.028Z,6.17
2017-02-24T12:15:42.033Z,6.12
2017-02-24T12:16:51.050Z,6.22
2017-02-24T12:18:00.023Z,6.3
2017-02-24T12:19:09.871Z,6.36
2017-02-24T12:20:19.323Z,6.36
2017-02-24T12:21:28.735Z,6.48
2017-02-24T12:22:37.712Z,6.48
2017-02-24T12:23:46.704Z,6.38
2017-02-24T12:24:55.710Z,6.41
2017-02-24T12:26:04.690Z,6.3
2017-02-24T12:27:14.377Z,6.46
2017-02-24T12:28:23.385Z,6.3
2017-02-24T12:29:32.366Z,6.43
2017-02-24T12:30:41.339Z,6.48
2017-02-24T12:31:50.340Z,6.44
2017-02-24T12:32:59.718Z,6.41
2017-02-24T12:34:08.713Z,6.4
2017-02-24T12:35:17.706Z,6.44
2017-02-24T12:36:26.686Z,6.34
2017-02-24T12:37:35.664Z,6.4
2017-02-24T12:38:45.077Z,6.44
2017-02-24T12:39:54.099Z,6.3
2017-02-24T12:41:03.219Z,6.38
2017-02-24T12:42:12.628Z,6.48
2017-02-24T12:43:21.601Z,6.46
2017-02-24T12:44:30.853Z,6.49
2017-02-24T12:45:39.939Z,6.43
2017-02-24T12:46:48.940Z,6.52
2017-02-24T12:47:57.929Z,6.49
2017-02-24T12:49:06.914Z,6.43
2017-02-24T12:50:16.142Z,6.43
2017-02-24T12:51:25.326Z,6.43
2017-02-24T12:52:34.315Z,6.48
2017-02-24T12:53:43.289Z,6.48
2017-02-24T12:54:52.276Z,6.62
2017-02-24T12:56:01.516Z,6.71
2017-02-24T12:57:10.511Z,6.79
2017-02-24T12:58:19.596Z,6.84
2017-02-24T12:59:28.593Z,6.94
2017-02-24T13:00:37.625Z,6.85
2017-02-24T13:01:46.979Z,6.77
2017-02-24T13:02:55.957Z,6.71
2017-02-24T13:04:04.968Z,6.74
2017-02-24T13:05:13.945Z,6.85
2017-02-24T13:06:22.931Z,6.92
2017-02-24T13:07:32.177Z,6.87
2017-02-24T13:08:41.157Z,6.87
2017-02-24T13:09:50.671Z,6.85
2017-02-24T13:11:00.346Z,6.89
2017-02-24T13:12:09.577Z,6.94
2017-02-24T13:13:19.398Z,7.05
2017-02-24T13:14:28.393Z,7.16
2017-02-24T13:15:37.470Z,7.13
2017-02-24T13:16:46.461Z,7.23
2017-02-24T13:17:55.442Z,7.16
2017-02-24T13:19:04.733Z,7.13
2017-02-24T13:20:13.750Z,7.13
2017-02-24T13:21:23.045Z,6.99
2017-02-24T13:22:32.030Z,6.98
2017-02-24T13:23:41.015Z,6.81
2017-02-24T13:24:50.883Z,6.77
2017-02-24T13:26:00.374Z,6.8
2017-02-24T13:27:09.384Z,6.85
2017-02-24T13:28:18.376Z,6.81
2017-02-24T13:29:27.370Z,6.88
2017-02-24T13:30:36.674Z,6.94
2017-02-24T13:31:46.915Z,6.92
2017-02-24T13:32:56.453Z,6.94
2017-02-24T13:34:06.024Z,6.94
2017-02-24T13:35:15.646Z,6.84
2017-02-24T13:36:25.204Z,6.79
2017-02-24T13:37:34.206Z,6.92
2017-02-24T13:38:43.201Z,6.85
2017-02-24T13:39:52.180Z,6.77
2017-02-24T13:41:01.189Z,6.91
2017-02-24T13:42:10.437Z,6.91
2017-02-24T13:43:19.521Z,6.95
2017-02-24T13:44:28.521Z,6.99
2017-02-24T13:45:37.516Z,7.02
2017-02-24T13:46:46.488Z,7.02
2017-02-24T13:47:55.722Z,7.07
2017-02-24T13:49:05.115Z,7.15
2017-02-24T13:50:14.199Z,7.21
2017-02-24T13:51:23.192Z,7.07
2017-02-24T13:52:32.202Z,7.12
2017-02-24T13:53:41.426Z,7.15
2017-02-24T13:54:50.511Z,7.2
2017-02-24T13:55:59.501Z,6.97
2017-02-24T13:57:08.489Z,6.85
2017-02-24T13:58:17.484Z,6.73
2017-02-24T13:59:26.709Z,6.66
2017-02-24T14:00:35.696Z,6.66
2017-02-24T14:01:44.683Z,6.61
2017-02-24T14:02:53.693Z,6.58
2017-02-24T14:04:03.079Z,6.61
2017-02-24T14:05:12.359Z,6.69
2017-02-24T14:06:21.334Z,6.81
2017-02-24T14:07:30.319Z,6.97
2017-02-24T14:08:39.299Z,6.98
2017-02-24T14:09:48.387Z,7.13
2017-02-24T14:10:57.654Z,7.15
2017-02-24T14:12:06.656Z,7.15
2017-02-24T14:13:15.626Z,7.17
2017-02-24T14:14:24.619Z,7.25
2017-02-24T14:15:33.627Z,7.34
2017-02-24T14:16:42.849Z,7.23
2017-02-24T14:17:51.843Z,7.16
2017-02-24T14:19:00.912Z,7.2
2017-02-24T14:20:09.923Z,7.17
2017-02-24T14:21:18.910Z,7.12
2017-02-24T14:22:28.274Z,7.12
2017-02-24T14:23:38.656Z,7.1
2017-02-24T14:24:48.847Z,7.15
2017-02-24T14:25:58.284Z,7.15
2017-02-24T14:27:07.278Z,7.2
2017-02-24T14:28:16.514Z,7.1
2017-02-24T14:29:25.493Z,7.09
2017-02-24T14:30:34.480Z,7.02
2017-02-24T14:31:44.194Z,7.03
2017-02-24T14:32:53.559Z,7.06
2017-02-24T14:34:03.439Z,7.05
2017-02-24T14:35:12.438Z,6.92
2017-02-24T14:36:22.094Z,7.02
2017-02-24T14:37:31.091Z,7.03
2017-02-24T14:38:40.764Z,6.94
2017-02-24T14:39:49.993Z,6.98
2017-02-24T14:40:58.986Z,6.87
2017-02-24T14:42:07.986Z,6.85
2017-02-24T14:43:16.983Z,6.87
2017-02-24T14:44:26.063Z,6.89
2017-02-24T14:45:35.346Z,6.87
2017-02-24T14:46:44.327Z,6.87
2017-02-24T14:47:53.307Z,6.89
2017-02-24T14:49:02.309Z,6.98
2017-02-24T14:50:11.292Z,6.91
2017-02-24T14:51:20.618Z,6.91
2017-02-24T14:52:29.662Z,7.05
2017-02-24T14:53:39.090Z,6.97
2017-02-24T14:54:48.652Z,7.07
2017-02-24T14:56:00.092Z,6.99
2017-02-24T14:57:11.294Z,7.05
2017-02-24T14:58:21.544Z,7.1
2017-02-24T14:59:30.531Z,7.15
2017-02-24T15:00:39.510Z,7.21
2017-02-24T15:01:48.483Z,7.16
2017-02-24T15:02:57.796Z,7.09
2017-02-24T15:04:07.223Z,7.1
2017-02-24T15:05:16.744Z,7.16
2017-02-24T15:06:26.300Z,7.16
2017-02-24T15:07:35.310Z,7.13
2017-02-24T15:08:44.546Z,7.16
2017-02-24T15:09:53.545Z,7.12
2017-02-24T15:11:02.893Z,7.1
2017-02-24T15:12:11.871Z,7.06
2017-02-24T15:13:20.854Z,7.03
2017-02-24T15:14:30.090Z,7.07
2017-02-24T15:15:39.085Z,6.99
2017-02-24T15:16:48.069Z,7.05
2017-02-24T15:17:57.108Z,6.94
2017-02-24T15:19:06.898Z,6.97
2017-02-24T15:20:16.645Z,6.87
2017-02-24T15:21:25.645Z,6.85
2017-02-24T15:22:34.626Z,6.84
2017-02-24T15:23:43.611Z,6.85
2017-02-24T15:24:52.587Z,6.88
2017-02-24T15:26:01.909Z,6.94